createdAt,value
2022-11-30T00:01:27.301Z,103782.25
2022-11-30T00:03:55.836Z,103786.78
2022-11-30T00:06:23.714Z,103779.22
2022-11-30T00:08:57.447Z,103788.81
2022-11-30T00:11:25.796Z,103776.34
2022-11-30T00:13:52.887Z,103784.16
2022-11-30T00:16:19.739Z,103775.09
2022-11-30T00:18:46.630Z,103785.97
2022-11-30T00:21:14.958Z,103779.13
2022-11-30T00:23:44.282Z,103782.72
2022-11-30T00:26:13.163Z,103784.41
2022-11-30T00:28:40.775Z,103785.66
2022-11-30T00:31:11.821Z,103782.28
2022-11-30T00:33:38.946Z,103772.34
2022-11-30T00:36:09.181Z,103790.47
2022-11-30T00:38:36.757Z,103779.03
2022-11-30T00:41:04.091Z,103765.97
2022-11-30T00:43:31.600Z,103778.13
2022-11-30T00:46:01.976Z,103747.53
2022-11-30T00:48:28.595Z,103777.97
2022-11-30T00:50:55.153Z,103779.09
2022-11-30T00:53:25.787Z,103775.97
2022-11-30T00:55:52.427Z,103767.28
2022-11-30T00:58:19.798Z,103775.78
2022-11-30T01:00:46.780Z,103773.25
2022-11-30T01:03:13.733Z,103764.94
2022-11-30T01:05:41.374Z,103772.91
2022-11-30T01:08:09.782Z,103764.94
2022-11-30T01:10:38.518Z,103778.88
2022-11-30T01:13:05.662Z,103773.25
2022-11-30T01:15:38.877Z,103774.00
2022-11-30T01:18:31.791Z,103768.53
2022-11-30T01:20:58.497Z,103763.50
2022-11-30T01:23:25.044Z,103771.28
2022-11-30T01:25:55.644Z,103772.75
2022-11-30T01:28:22.267Z,103760.97
2022-11-30T01:31:02.904Z,103778.56
2022-11-30T01:33:29.826Z,103763.91
2022-11-30T01:36:05.638Z,103770.97
2022-11-30T01:38:34.777Z,103769.53
2022-11-30T01:41:02.491Z,103770.59
2022-11-30T01:43:38.858Z,103774.41
2022-11-30T01:46:17.845Z,103774.78
2022-11-30T01:48:45.178Z,103750.69
2022-11-30T01:51:14.619Z,103746.72
2022-11-30T01:53:43.765Z,103772.44
2022-11-30T01:56:25.642Z,103756.69
2022-11-30T01:58:57.081Z,103755.41
2022-11-30T02:01:27.471Z,103770.09
2022-11-30T02:04:05.177Z,103766.66
2022-11-30T02:06:33.611Z,103767.22
2022-11-30T02:09:00.180Z,103741.50
2022-11-30T02:11:27.948Z,103756.72
2022-11-30T02:13:54.518Z,103759.25
2022-11-30T02:16:29.888Z,103756.34
2022-11-30T02:19:11.710Z,103747.09
2022-11-30T02:21:59.762Z,103756.53
2022-11-30T02:24:38.246Z,103749.28
2022-11-30T02:27:49.654Z,103763.22
2022-11-30T02:30:24.918Z,103751.66
2022-11-30T02:33:03.037Z,103752.72
2022-11-30T02:35:34.937Z,103748.97
2022-11-30T02:38:06.722Z,103761.28
2022-11-30T02:40:33.284Z,103741.00
2022-11-30T02:43:04.442Z,103747.69
2022-11-30T02:45:41.930Z,103756.75
2022-11-30T02:48:10.975Z,103745.69
2022-11-30T02:50:48.596Z,103743.72
2022-11-30T02:53:15.286Z,103751.66
2022-11-30T02:55:42.121Z,103720.50
2022-11-30T02:58:08.758Z,103730.84
2022-11-30T03:00:35.978Z,103748.59
2022-11-30T03:03:04.447Z,103745.84
2022-11-30T03:05:31.057Z,103726.47
2022-11-30T03:07:57.745Z,103732.78
2022-11-30T03:10:24.348Z,103725.53
2022-11-30T03:12:51.430Z,103733.88
2022-11-30T03:15:19.654Z,103735.31
2022-11-30T03:17:46.230Z,103714.31
2022-11-30T03:20:12.907Z,103736.59
2022-11-30T03:22:40.783Z,103732.78
2022-11-30T03:25:07.733Z,103742.91
2022-11-30T03:27:36.645Z,103735.63
2022-11-30T03:30:03.898Z,103734.19
2022-11-30T03:32:31.378Z,103738.53
2022-11-30T03:34:57.926Z,103726.91
2022-11-30T03:37:24.550Z,103729.59
2022-11-30T03:39:56.502Z,103736.47
2022-11-30T03:42:24.710Z,103729.53
2022-11-30T03:44:51.316Z,103737.06
2022-11-30T03:47:17.898Z,103731.94
2022-11-30T03:49:44.477Z,103738.44
2022-11-30T03:52:11.086Z,103732.22
2022-11-30T03:54:37.664Z,103744.66
2022-11-30T03:57:04.221Z,103725.22
2022-11-30T03:59:30.860Z,103720.09
2022-11-30T04:01:57.473Z,103727.09
2022-11-30T04:04:24.087Z,103740.88
2022-11-30T04:06:52.213Z,103740.22
2022-11-30T04:09:18.846Z,103746.41
2022-11-30T04:11:45.410Z,103738.72
2022-11-30T04:14:13.101Z,103730.91
2022-11-30T04:16:39.629Z,103737.00
2022-11-30T04:19:06.304Z,103741.88
2022-11-30T04:21:33.671Z,103755.47
2022-11-30T04:24:00.359Z,103738.19
2022-11-30T04:26:26.932Z,103734.00
2022-11-30T04:28:53.564Z,103745.25
2022-11-30T04:31:20.175Z,103745.06
2022-11-30T04:33:46.735Z,103738.59
2022-11-30T04:36:19.101Z,103750.31
2022-11-30T04:38:46.531Z,103746.81
2022-11-30T04:41:13.297Z,103753.34
2022-11-30T04:43:39.888Z,103743.66
2022-11-30T04:46:11.594Z,103745.84
2022-11-30T04:48:38.326Z,103741.91
2022-11-30T04:51:08.285Z,103754.78
2022-11-30T04:53:37.010Z,103752.88
2022-11-30T04:56:11.226Z,103750.94
2022-11-30T04:58:41.834Z,103751.28
2022-11-30T05:01:16.239Z,103749.13
2022-11-30T05:03:42.946Z,103729.19
2022-11-30T05:06:09.499Z,103744.59
2022-11-30T05:08:36.042Z,103753.13
2022-11-30T05:11:04.992Z,103750.44
2022-11-30T05:16:12.038Z,103751.63
2022-11-30T05:18:38.606Z,103734.53
2022-11-30T05:21:05.308Z,103742.78
2022-11-30T05:23:31.957Z,103741.16
2022-11-30T05:26:05.127Z,103748.16
2022-11-30T05:28:31.682Z,103744.13
2022-11-30T05:31:04.624Z,103733.38
2022-11-30T05:33:32.172Z,103738.41
2022-11-30T05:35:58.719Z,103745.28
2022-11-30T05:38:26.171Z,103746.59
2022-11-30T05:40:52.729Z,103736.31
2022-11-30T17:14:55.707Z,103695.63
2022-11-30T17:17:22.323Z,103698.31
2022-11-30T17:19:49.172Z,103715.28
2022-11-30T17:22:15.804Z,103719.25
2022-11-30T17:24:42.381Z,103711.44
2022-11-30T17:27:09.166Z,103713.59
2022-11-30T17:29:35.986Z,103714.09
2022-11-30T17:32:02.554Z,103708.84
2022-11-30T17:34:29.164Z,103720.41
2022-11-30T17:36:56.963Z,103706.88
2022-11-30T17:39:24.279Z,103712.97
2022-11-30T17:41:50.926Z,103717.63
2022-11-30T17:44:18.744Z,103708.22
2022-11-30T17:46:48.241Z,103725.25
2022-11-30T17:49:15.334Z,103722.34
2022-11-30T17:51:42.722Z,103698.06
2022-11-30T17:54:11.142Z,103718.53
2022-11-30T17:56:37.729Z,103722.13
2022-11-30T17:59:04.456Z,103714.50
2022-11-30T18:01:31.143Z,103704.00
2022-11-30T18:03:59.007Z,103707.06
2022-11-30T18:06:26.365Z,103701.81
2022-11-30T18:08:56.111Z,103693.50
2022-11-30T18:11:26.082Z,103700.16
2022-11-30T18:13:55.350Z,103696.38
2022-11-30T18:16:23.328Z,103702.16
2022-11-30T18:18:50.402Z,103701.25
2022-11-30T18:21:21.806Z,103702.16
2022-11-30T18:23:49.398Z,103703.25
2022-11-30T18:26:19.412Z,103695.84
2022-11-30T18:28:47.005Z,103696.91
2022-11-30T18:31:13.665Z,103702.16
2022-11-30T18:33:40.301Z,103697.81
2022-11-30T18:36:07.875Z,103683.19
2022-11-30T18:38:37.959Z,103701.47
2022-11-30T18:41:06.523Z,103698.75
2022-11-30T18:43:34.901Z,103697.66
2022-11-30T18:46:09.431Z,103686.69
2022-11-30T18:48:37.900Z,103686.50
2022-11-30T18:51:16.222Z,103687.06
2022-11-30T18:53:43.839Z,103654.16
2022-11-30T18:56:19.019Z,103701.91
2022-11-30T18:58:48.862Z,103697.56
2022-11-30T19:01:18.628Z,103709.38
2022-11-30T19:04:18.869Z,103705.75
2022-11-30T19:06:45.433Z,103711.72
2022-11-30T19:09:15.299Z,103707.38
2022-11-30T19:11:42.816Z,103666.34
2022-11-30T19:14:13.642Z,103714.09
2022-11-30T19:16:43.169Z,103694.19
2022-11-30T19:19:15.861Z,103711.94
2022-11-30T19:21:45.664Z,103718.09
2022-11-30T19:24:12.277Z,103705.03
2022-11-30T19:26:40.161Z,103716.81
2022-11-30T19:29:07.131Z,103717.72
2022-11-30T19:31:44.549Z,103711.72
2022-11-30T19:34:14.187Z,103722.06
2022-11-30T19:36:41.219Z,103719.69
2022-11-30T19:39:07.965Z,103729.13
2022-11-30T19:41:34.633Z,103733.13
2022-11-30T19:44:04.511Z,103725.69
2022-11-30T19:46:32.987Z,103728.78
2022-11-30T19:49:02.102Z,103728.44
2022-11-30T19:51:31.074Z,103725.16
2022-11-30T19:53:59.378Z,103729.13
2022-11-30T19:56:26.970Z,103741.97
2022-11-30T19:58:53.588Z,103726.44
2022-11-30T20:01:25.350Z,103738.56
2022-11-30T20:03:54.221Z,103743.84
2022-11-30T20:06:24.365Z,103738.81
2022-11-30T20:10:35.242Z,103733.00
2022-11-30T20:17:07.384Z,103745.66
2022-11-30T20:19:34.209Z,103730.66
2022-11-30T20:22:03.954Z,103744.59
2022-11-30T20:24:31.125Z,103730.66
2022-11-30T20:26:57.764Z,103737.38
2022-11-30T20:29:24.488Z,103754.59
2022-11-30T20:31:51.067Z,103762.19
2022-11-30T20:34:17.973Z,103757.50
2022-11-30T20:36:46.074Z,103755.50
2022-11-30T20:39:13.099Z,103761.84
2022-11-30T20:41:39.737Z,103761.34
2022-11-30T20:44:06.434Z,103747.91
2022-11-30T20:46:35.554Z,103762.78
2022-11-30T20:49:04.487Z,103757.88
2022-11-30T20:51:34.752Z,103756.97
2022-11-30T20:54:04.097Z,103761.88
2022-11-30T20:56:30.797Z,103755.72
2022-11-30T20:59:01.050Z,103763.88
2022-11-30T21:01:27.681Z,103756.81
2022-11-30T21:03:54.282Z,103729.47
2022-11-30T21:06:23.797Z,103763.66
2022-11-30T21:08:50.467Z,103745.72
2022-11-30T21:11:19.752Z,103759.53
2022-11-30T21:13:48.148Z,103754.97
2022-11-30T21:16:18.714Z,103754.25
2022-11-30T21:18:49.052Z,103748.84
2022-11-30T21:21:21.174Z,103756.06
2022-11-30T21:23:48.496Z,103750.97
2022-11-30T21:26:25.887Z,103748.84
2022-11-30T21:28:58.586Z,103758.41
2022-11-30T21:31:25.233Z,103754.09
2022-11-30T21:33:53.670Z,103754.97
2022-11-30T21:36:21.659Z,103754.81
2022-11-30T21:38:48.617Z,103755.34
2022-11-30T21:41:16.194Z,103749.59
2022-11-30T21:43:42.796Z,103757.91
2022-11-30T21:46:14.819Z,103756.31
2022-11-30T21:48:45.369Z,103762.81
2022-11-30T21:51:14.989Z,103761.56
2022-11-30T21:53:48.158Z,103749.63
2022-11-30T21:56:18.056Z,103759.59
2022-11-30T21:58:46.383Z,103765.38
2022-11-30T22:01:36.334Z,103755.97
2022-11-30T22:04:05.387Z,103764.66
2022-11-30T22:06:34.534Z,103759.78
2022-11-30T22:09:07.921Z,103758.66
2022-11-30T22:11:36.520Z,103760.13
2022-11-30T22:14:04.136Z,103749.28
2022-11-30T22:16:35.776Z,103753.25
2022-11-30T22:19:04.424Z,103758.88
2022-11-30T22:21:31.699Z,103759.78
2022-11-30T22:24:04.153Z,103766.66
2022-11-30T22:26:34.712Z,103761.41
2022-11-30T22:29:06.453Z,103756.13
2022-11-30T22:31:38.910Z,103768.28
2022-11-30T22:34:06.078Z,103767.94
2022-11-30T22:36:35.058Z,103761.59
2022-11-30T22:39:07.529Z,103750.91
2022-11-30T22:41:34.115Z,103761.03
2022-11-30T22:44:01.259Z,103778.09
2022-11-30T22:46:30.990Z,103765.56
2022-11-30T22:49:06.731Z,103756.38
2022-11-30T22:51:34.848Z,103750.91
2022-11-30T22:54:02.042Z,103760.50
2022-11-30T22:56:31.472Z,103740.78
2022-11-30T22:59:00.604Z,103758.00
2022-11-30T23:01:30.309Z,103752.75
2022-11-30T23:04:02.323Z,103766.69
2022-11-30T23:06:28.965Z,103754.72
2022-11-30T23:08:55.664Z,103761.44
2022-11-30T23:11:24.273Z,103762.88
2022-11-30T23:13:52.397Z,103752.34
2022-11-30T23:16:19.850Z,103761.41
2022-11-30T23:18:49.269Z,103757.06
2022-11-30T23:21:19.692Z,103755.41
2022-11-30T23:23:47.427Z,103757.03
2022-11-30T23:26:18.023Z,103754.69
2022-11-30T23:28:46.640Z,103749.22
2022-11-30T23:31:34.571Z,103753.38
2022-11-30T23:34:06.301Z,103745.91
2022-11-30T23:36:34.223Z,103743.75
2022-11-30T23:39:03.905Z,103756.06
2022-11-30T23:41:31.608Z,103761.34
2022-11-30T23:43:58.467Z,103748.88
2022-11-30T23:46:25.734Z,103762.94
2022-11-30T23:48:57.284Z,103738.31
2022-11-30T23:51:24.333Z,103748.09
2022-11-30T23:53:51.121Z,103752.63
2022-11-30T23:56:20.754Z,103750.97
2022-11-30T23:58:47.724Z,103750.09
